sensor_id;sensor_type;location;lat;lon;timestamp;P1;durP1;ratioP1;P2;durP2;ratioP2
43650;SDS011;29247;50.944;5.382;2023-05-29T00:00:49;8.18;;;3.20;;
43650;SDS011;29247;50.944;5.382;2023-05-29T00:03:16;5.55;;;2.78;;
43650;SDS011;29247;50.944;5.382;2023-05-29T00:05:42;5.95;;;3.25;;
43650;SDS011;29247;50.944;5.382;2023-05-29T00:08:08;7.00;;;2.72;;
43650;SDS011;29247;50.944;5.382;2023-05-29T00:10:38;8.05;;;3.42;;
43650;SDS011;29247;50.944;5.382;2023-05-29T00:13:06;5.65;;;3.20;;
43650;SDS011;29247;50.944;5.382;2023-05-29T00:15:32;6.53;;;3.25;;
43650;SDS011;29247;50.944;5.382;2023-05-29T00:18:01;5.63;;;3.65;;
43650;SDS011;29247;50.944;5.382;2023-05-29T00:20:29;6.43;;;3.13;;
43650;SDS011;29247;50.944;5.382;2023-05-29T00:23:01;8.70;;;3.08;;
43650;SDS011;29247;50.944;5.382;2023-05-29T00:25:30;8.20;;;4.07;;
43650;SDS011;29247;50.944;5.382;2023-05-29T00:27:56;8.88;;;3.72;;
43650;SDS011;29247;50.944;5.382;2023-05-29T00:30:22;8.73;;;4.10;;
43650;SDS011;29247;50.944;5.382;2023-05-29T00:32:48;9.65;;;3.28;;
43650;SDS011;29247;50.944;5.382;2023-05-29T00:35:14;8.88;;;3.50;;
43650;SDS011;29247;50.944;5.382;2023-05-29T00:37:40;7.70;;;3.33;;
43650;SDS011;29247;50.944;5.382;2023-05-29T00:40:06;7.45;;;2.80;;
43650;SDS011;29247;50.944;5.382;2023-05-29T00:42:34;10.27;;;4.32;;
43650;SDS011;29247;50.944;5.382;2023-05-29T00:45:00;8.68;;;3.85;;
43650;SDS011;29247;50.944;5.382;2023-05-29T00:47:29;7.70;;;4.03;;
43650;SDS011;29247;50.944;5.382;2023-05-29T00:49:55;5.60;;;3.67;;
43650;SDS011;29247;50.944;5.382;2023-05-29T00:52:24;9.55;;;3.55;;
43650;SDS011;29247;50.944;5.382;2023-05-29T00:54:54;5.53;;;3.05;;
43650;SDS011;29247;50.944;5.382;2023-05-29T00:57:22;6.40;;;3.92;;
43650;SDS011;29247;50.944;5.382;2023-05-29T00:59:48;8.52;;;3.63;;
43650;SDS011;29247;50.944;5.382;2023-05-29T01:02:21;12.50;;;3.88;;
43650;SDS011;29247;50.944;5.382;2023-05-29T01:04:47;10.55;;;3.60;;
43650;SDS011;29247;50.944;5.382;2023-05-29T01:07:13;10.25;;;4.28;;
43650;SDS011;29247;50.944;5.382;2023-05-29T01:09:41;10.75;;;3.80;;
43650;SDS011;29247;50.944;5.382;2023-05-29T01:18:12;10.48;;;3.92;;
43650;SDS011;29247;50.944;5.382;2023-05-29T01:28:44;13.10;;;4.00;;
43650;SDS011;29247;50.944;5.382;2023-05-29T01:31:20;10.38;;;4.57;;
43650;SDS011;29247;50.944;5.382;2023-05-29T01:33:54;8.00;;;4.03;;
43650;SDS011;29247;50.944;5.382;2023-05-29T01:36:25;9.63;;;3.90;;
43650;SDS011;29247;50.944;5.382;2023-05-29T01:38:53;15.00;;;4.53;;
43650;SDS011;29247;50.944;5.382;2023-05-29T01:41:25;8.73;;;4.55;;
43650;SDS011;29247;50.944;5.382;2023-05-29T01:43:54;9.68;;;4.60;;
43650;SDS011;29247;50.944;5.382;2023-05-29T01:46:25;7.00;;;4.00;;
43650;SDS011;29247;50.944;5.382;2023-05-29T01:48:52;13.18;;;4.35;;
43650;SDS011;29247;50.944;5.382;2023-05-29T01:51:20;8.57;;;4.35;;
43650;SDS011;29247;50.944;5.382;2023-05-29T01:53:46;6.72;;;4.55;;
43650;SDS011;29247;50.944;5.382;2023-05-29T01:56:11;11.35;;;5.13;;
43650;SDS011;29247;50.944;5.382;2023-05-29T01:58:40;7.93;;;4.38;;
43650;SDS011;29247;50.944;5.382;2023-05-29T02:01:07;12.48;;;4.80;;
43650;SDS011;29247;50.944;5.382;2023-05-29T02:03:35;11.10;;;4.97;;
43650;SDS011;29247;50.944;5.382;2023-05-29T02:06:01;10.18;;;5.00;;
43650;SDS011;29247;50.944;5.382;2023-05-29T02:08:27;11.88;;;5.38;;
43650;SDS011;29247;50.944;5.382;2023-05-29T02:10:53;13.13;;;4.97;;
43650;SDS011;29247;50.944;5.382;2023-05-29T02:13:19;12.70;;;4.75;;
43650;SDS011;29247;50.944;5.382;2023-05-29T02:15:47;10.50;;;4.93;;
43650;SDS011;29247;50.944;5.382;2023-05-29T02:18:13;11.05;;;4.95;;
43650;SDS011;29247;50.944;5.382;2023-05-29T02:20:44;10.52;;;5.22;;
43650;SDS011;29247;50.944;5.382;2023-05-29T02:23:13;11.50;;;4.90;;
43650;SDS011;29247;50.944;5.382;2023-05-29T02:25:42;10.43;;;4.82;;
43650;SDS011;29247;50.944;5.382;2023-05-29T02:28:08;11.90;;;5.15;;
43650;SDS011;29247;50.944;5.382;2023-05-29T02:30:34;7.88;;;5.47;;
43650;SDS011;29247;50.944;5.382;2023-05-29T02:33:03;10.15;;;5.07;;
43650;SDS011;29247;50.944;5.382;2023-05-29T02:35:29;9.68;;;4.15;;
43650;SDS011;29247;50.944;5.382;2023-05-29T02:37:54;8.68;;;4.32;;
43650;SDS011;29247;50.944;5.382;2023-05-29T02:40:22;9.63;;;3.42;;
43650;SDS011;29247;50.944;5.382;2023-05-29T02:42:50;12.10;;;4.25;;
43650;SDS011;29247;50.944;5.382;2023-05-29T02:45:16;7.00;;;3.88;;
43650;SDS011;29247;50.944;5.382;2023-05-29T02:47:45;18.42;;;3.53;;
43650;SDS011;29247;50.944;5.382;2023-05-29T02:50:10;9.07;;;3.60;;
43650;SDS011;29247;50.944;5.382;2023-05-29T02:52:36;11.68;;;3.33;;
43650;SDS011;29247;50.944;5.382;2023-05-29T02:55:04;7.00;;;2.67;;
43650;SDS011;29247;50.944;5.382;2023-05-29T02:57:33;10.45;;;3.92;;
43650;SDS011;29247;50.944;5.382;2023-05-29T02:59:59;9.40;;;2.90;;
43650;SDS011;29247;50.944;5.382;2023-05-29T03:02:25;10.43;;;3.40;;
43650;SDS011;29247;50.944;5.382;2023-05-29T03:04:54;12.68;;;2.72;;
43650;SDS011;29247;50.944;5.382;2023-05-29T03:07:22;8.05;;;2.42;;
43650;SDS011;29247;50.944;5.382;2023-05-29T03:09:50;14.43;;;3.35;;
43650;SDS011;29247;50.944;5.382;2023-05-29T03:12:15;10.73;;;2.30;;
43650;SDS011;29247;50.944;5.382;2023-05-29T03:14:46;13.18;;;3.17;;
43650;SDS011;29247;50.944;5.382;2023-05-29T03:17:12;6.82;;;2.50;;
43650;SDS011;29247;50.944;5.382;2023-05-29T03:19:37;6.18;;;2.30;;
43650;SDS011;29247;50.944;5.382;2023-05-29T03:22:06;10.55;;;2.85;;
43650;SDS011;29247;50.944;5.382;2023-05-29T03:24:37;9.07;;;2.47;;
43650;SDS011;29247;50.944;5.382;2023-05-29T03:27:05;8.70;;;2.92;;
43650;SDS011;29247;50.944;5.382;2023-05-29T03:29:32;8.98;;;2.50;;
43650;SDS011;29247;50.944;5.382;2023-05-29T03:31:58;10.45;;;2.67;;
43650;SDS011;29247;50.944;5.382;2023-05-29T03:34:23;12.45;;;2.85;;
43650;SDS011;29247;50.944;5.382;2023-05-29T03:36:52;8.80;;;2.35;;
43650;SDS011;29247;50.944;5.382;2023-05-29T03:39:18;10.10;;;3.70;;
43650;SDS011;29247;50.944;5.382;2023-05-29T03:41:47;7.25;;;2.35;;
43650;SDS011;29247;50.944;5.382;2023-05-29T03:44:12;7.10;;;2.03;;
43650;SDS011;29247;50.944;5.382;2023-05-29T03:46:40;8.77;;;2.05;;
43650;SDS011;29247;50.944;5.382;2023-05-29T03:49:11;7.22;;;2.50;;
43650;SDS011;29247;50.944;5.382;2023-05-29T03:51:39;12.55;;;2.33;;
43650;SDS011;29247;50.944;5.382;2023-05-29T03:54:10;4.32;;;1.65;;
43650;SDS011;29247;50.944;5.382;2023-05-29T03:56:38;7.15;;;2.03;;
43650;SDS011;29247;50.944;5.382;2023-05-29T03:59:03;6.10;;;2.08;;
43650;SDS011;29247;50.944;5.382;2023-05-29T04:01:29;11.05;;;1.95;;
43650;SDS011;29247;50.944;5.382;2023-05-29T04:03:55;5.45;;;1.90;;
43650;SDS011;29247;50.944;5.382;2023-05-29T04:06:23;6.95;;;1.60;;
43650;SDS011;29247;50.944;5.382;2023-05-29T04:08:53;6.72;;;2.00;;
43650;SDS011;29247;50.944;5.382;2023-05-29T04:11:22;10.00;;;2.20;;
43650;SDS011;29247;50.944;5.382;2023-05-29T04:13:47;6.32;;;2.53;;
43650;SDS011;29247;50.944;5.382;2023-05-29T04:16:17;11.90;;;2.35;;
43650;SDS011;29247;50.944;5.382;2023-05-29T04:18:45;8.93;;;2.50;;
43650;SDS011;29247;50.944;5.382;2023-05-29T04:21:10;8.23;;;2.17;;
43650;SDS011;29247;50.944;5.382;2023-05-29T04:23:37;8.65;;;2.17;;
43650;SDS011;29247;50.944;5.382;2023-05-29T04:26:02;5.28;;;1.75;;
43650;SDS011;29247;50.944;5.382;2023-05-29T04:28:28;9.18;;;2.33;;
43650;SDS011;29247;50.944;5.382;2023-05-29T04:30:59;12.15;;;2.38;;
43650;SDS011;29247;50.944;5.382;2023-05-29T04:33:28;8.35;;;2.10;;
43650;SDS011;29247;50.944;5.382;2023-05-29T04:35:56;8.95;;;3.00;;
43650;SDS011;29247;50.944;5.382;2023-05-29T04:38:23;5.53;;;2.00;;
43650;SDS011;29247;50.944;5.382;2023-05-29T04:40:53;6.10;;;1.80;;
43650;SDS011;29247;50.944;5.382;2023-05-29T04:43:24;16.05;;;2.03;;
43650;SDS011;29247;50.944;5.382;2023-05-29T04:45:53;9.63;;;2.05;;
43650;SDS011;29247;50.944;5.382;2023-05-29T04:48:19;6.97;;;2.42;;
43650;SDS011;29247;50.944;5.382;2023-05-29T04:50:45;6.85;;;1.80;;
43650;SDS011;29247;50.944;5.382;2023-05-29T04:53:11;11.23;;;2.10;;
43650;SDS011;29247;50.944;5.382;2023-05-29T04:55:36;11.38;;;2.15;;
43650;SDS011;29247;50.944;5.382;2023-05-29T04:58:02;7.65;;;1.60;;
43650;SDS011;29247;50.944;5.382;2023-05-29T05:00:31;12.60;;;2.75;;
43650;SDS011;29247;50.944;5.382;2023-05-29T05:02:59;11.10;;;2.13;;
43650;SDS011;29247;50.944;5.382;2023-05-29T05:05:27;17.85;;;2.28;;
43650;SDS011;29247;50.944;5.382;2023-05-29T05:07:55;11.40;;;2.22;;
43650;SDS011;29247;50.944;5.382;2023-05-29T05:10:21;11.85;;;2.03;;
43650;SDS011;29247;50.944;5.382;2023-05-29T05:12:46;5.32;;;1.67;;
43650;SDS011;29247;50.944;5.382;2023-05-29T05:15:12;9.63;;;2.67;;
43650;SDS011;29247;50.944;5.382;2023-05-29T05:17:38;9.07;;;1.65;;
43650;SDS011;29247;50.944;5.382;2023-05-29T05:20:08;13.77;;;1.65;;
43650;SDS011;29247;50.944;5.382;2023-05-29T05:22:36;7.90;;;2.27;;
43650;SDS011;29247;50.944;5.382;2023-05-29T05:25:01;6.18;;;1.77;;
43650;SDS011;29247;50.944;5.382;2023-05-29T05:27:29;10.32;;;1.88;;
43650;SDS011;29247;50.944;5.382;2023-05-29T05:29:55;5.30;;;1.83;;
43650;SDS011;29247;50.944;5.382;2023-05-29T05:32:24;7.47;;;1.85;;
43650;SDS011;29247;50.944;5.382;2023-05-29T05:34:52;10.15;;;1.95;;
43650;SDS011;29247;50.944;5.382;2023-05-29T05:37:18;10.55;;;2.53;;
43650;SDS011;29247;50.944;5.382;2023-05-29T05:39:50;9.30;;;2.22;;
43650;SDS011;29247;50.944;5.382;2023-05-29T05:42:16;10.50;;;1.88;;
43650;SDS011;29247;50.944;5.382;2023-05-29T05:44:41;10.80;;;1.88;;
43650;SDS011;29247;50.944;5.382;2023-05-29T05:47:09;13.38;;;1.75;;
43650;SDS011;29247;50.944;5.382;2023-05-29T05:49:38;7.68;;;1.70;;
43650;SDS011;29247;50.944;5.382;2023-05-29T05:52:03;9.80;;;1.83;;
43650;SDS011;29247;50.944;5.382;2023-05-29T05:54:31;9.77;;;2.58;;
43650;SDS011;29247;50.944;5.382;2023-05-29T05:56:59;10.45;;;3.30;;
43650;SDS011;29247;50.944;5.382;2023-05-29T05:59:28;6.70;;;1.70;;
43650;SDS011;29247;50.944;5.382;2023-05-29T06:01:56;9.27;;;2.15;;
43650;SDS011;29247;50.944;5.382;2023-05-29T06:04:27;12.88;;;2.38;;
43650;SDS011;29247;50.944;5.382;2023-05-29T06:06:52;11.90;;;1.80;;
43650;SDS011;29247;50.944;5.382;2023-05-29T06:09:18;9.15;;;2.63;;
43650;SDS011;29247;50.944;5.382;2023-05-29T06:11:44;11.05;;;2.03;;
43650;SDS011;29247;50.944;5.382;2023-05-29T06:14:13;5.97;;;2.15;;
43650;SDS011;29247;50.944;5.382;2023-05-29T06:16:43;10.40;;;2.40;;
43650;SDS011;29247;50.944;5.382;2023-05-29T06:19:09;9.18;;;2.08;;
43650;SDS011;29247;50.944;5.382;2023-05-29T06:21:37;9.50;;;1.73;;
43650;SDS011;29247;50.944;5.382;2023-05-29T06:24:03;10.25;;;2.20;;
43650;SDS011;29247;50.944;5.382;2023-05-29T06:26:28;9.88;;;2.40;;
43650;SDS011;29247;50.944;5.382;2023-05-29T06:28:58;8.20;;;2.55;;
43650;SDS011;29247;50.944;5.382;2023-05-29T06:31:24;9.68;;;1.60;;
43650;SDS011;29247;50.944;5.382;2023-05-29T06:33:50;13.70;;;2.00;;
43650;SDS011;29247;50.944;5.382;2023-05-29T06:36:16;6.38;;;2.47;;
43650;SDS011;29247;50.944;5.382;2023-05-29T06:38:48;9.88;;;2.05;;
43650;SDS011;29247;50.944;5.382;2023-05-29T06:41:15;9.52;;;2.00;;
43650;SDS011;29247;50.944;5.382;2023-05-29T06:43:42;10.45;;;1.88;;
43650;SDS011;29247;50.944;5.382;2023-05-29T06:46:08;18.85;;;2.58;;
43650;SDS011;29247;50.944;5.382;2023-05-29T06:48:37;15.45;;;2.45;;
43650;SDS011;29247;50.944;5.382;2023-05-29T06:51:06;8.02;;;2.55;;
43650;SDS011;29247;50.944;5.382;2023-05-29T06:53:36;9.82;;;1.92;;
43650;SDS011;29247;50.944;5.382;2023-05-29T06:56:03;10.93;;;2.13;;
43650;SDS011;29247;50.944;5.382;2023-05-29T06:58:31;12.60;;;2.22;;
43650;SDS011;29247;50.944;5.382;2023-05-29T07:01:00;7.72;;;2.10;;
43650;SDS011;29247;50.944;5.382;2023-05-29T07:03:26;5.03;;;1.42;;
43650;SDS011;29247;50.944;5.382;2023-05-29T07:05:52;12.77;;;2.40;;
43650;SDS011;29247;50.944;5.382;2023-05-29T07:08:20;7.82;;;1.60;;
43650;SDS011;29247;50.944;5.382;2023-05-29T07:10:50;6.65;;;2.03;;
43650;SDS011;29247;50.944;5.382;2023-05-29T07:13:18;9.88;;;2.08;;
43650;SDS011;29247;50.944;5.382;2023-05-29T07:15:48;9.80;;;2.58;;
43650;SDS011;29247;50.944;5.382;2023-05-29T07:18:16;14.32;;;2.42;;
43650;SDS011;29247;50.944;5.382;2023-05-29T07:20:44;6.53;;;1.80;;
43650;SDS011;29247;50.944;5.382;2023-05-29T07:23:10;6.93;;;1.98;;
43650;SDS011;29247;50.944;5.382;2023-05-29T07:25:36;10.48;;;2.00;;
43650;SDS011;29247;50.944;5.382;2023-05-29T07:28:05;9.23;;;2.08;;
43650;SDS011;29247;50.944;5.382;2023-05-29T07:30:32;15.00;;;2.22;;
43650;SDS011;29247;50.944;5.382;2023-05-29T07:32:58;7.97;;;1.92;;
43650;SDS011;29247;50.944;5.382;2023-05-29T07:35:30;5.10;;;1.58;;
43650;SDS011;29247;50.944;5.382;2023-05-29T07:40:23;3.67;;;1.77;;
43650;SDS011;29247;50.944;5.382;2023-05-29T07:42:49;8.20;;;1.80;;
43650;SDS011;29247;50.944;5.382;2023-05-29T07:45:17;5.00;;;1.75;;
43650;SDS011;29247;50.944;5.382;2023-05-29T07:47:43;6.68;;;2.42;;
43650;SDS011;29247;50.944;5.382;2023-05-29T07:50:09;9.70;;;2.22;;
43650;SDS011;29247;50.944;5.382;2023-05-29T07:52:38;9.10;;;1.80;;
43650;SDS011;29247;50.944;5.382;2023-05-29T07:55:03;8.27;;;1.75;;
43650;SDS011;29247;50.944;5.382;2023-05-29T07:57:31;8.27;;;2.35;;
43650;SDS011;29247;50.944;5.382;2023-05-29T07:59:58;9.95;;;2.25;;
43650;SDS011;29247;50.944;5.382;2023-05-29T08:02:23;8.85;;;1.58;;
43650;SDS011;29247;50.944;5.382;2023-05-29T08:04:51;8.27;;;2.00;;
43650;SDS011;29247;50.944;5.382;2023-05-29T08:09:54;5.13;;;1.98;;
43650;SDS011;29247;50.944;5.382;2023-05-29T08:12:25;6.88;;;1.80;;
43650;SDS011;29247;50.944;5.382;2023-05-29T08:14:53;5.10;;;1.83;;
43650;SDS011;29247;50.944;5.382;2023-05-29T08:17:18;8.35;;;2.80;;
43650;SDS011;29247;50.944;5.382;2023-05-29T08:19:44;11.38;;;2.30;;
43650;SDS011;29247;50.944;5.382;2023-05-29T08:22:12;10.18;;;2.45;;
43650;SDS011;29247;50.944;5.382;2023-05-29T08:24:40;6.57;;;1.90;;
43650;SDS011;29247;50.944;5.382;2023-05-29T08:27:05;10.30;;;1.70;;
43650;SDS011;29247;50.944;5.382;2023-05-29T08:29:35;9.53;;;1.97;;
43650;SDS011;29247;50.944;5.382;2023-05-29T08:32:06;11.15;;;2.53;;
43650;SDS011;29247;50.944;5.382;2023-05-29T08:34:32;4.78;;;1.80;;
43650;SDS011;29247;50.944;5.382;2023-05-29T08:37:00;9.10;;;2.30;;
43650;SDS011;29247;50.944;5.382;2023-05-29T08:39:30;7.47;;;1.60;;
43650;SDS011;29247;50.944;5.382;2023-05-29T08:42:01;11.82;;;2.08;;
43650;SDS011;29247;50.944;5.382;2023-05-29T08:44:34;7.18;;;2.17;;
43650;SDS011;29247;50.944;5.382;2023-05-29T08:47:04;15.27;;;2.30;;
43650;SDS011;29247;50.944;5.382;2023-05-29T08:49:34;9.43;;;2.60;;
43650;SDS011;29247;50.944;5.382;2023-05-29T08:52:11;8.00;;;2.00;;
43650;SDS011;29247;50.944;5.382;2023-05-29T08:54:40;7.50;;;2.08;;
43650;SDS011;29247;50.944;5.382;2023-05-29T08:57:07;10.25;;;2.28;;
43650;SDS011;29247;50.944;5.382;2023-05-29T08:59:33;8.05;;;2.15;;
43650;SDS011;29247;50.944;5.382;2023-05-29T09:02:02;12.15;;;2.10;;
43650;SDS011;29247;50.944;5.382;2023-05-29T09:04:28;9.30;;;2.40;;
43650;SDS011;29247;50.944;5.382;2023-05-29T09:06:57;11.10;;;2.47;;
43650;SDS011;29247;50.944;5.382;2023-05-29T09:09:24;8.00;;;2.40;;
43650;SDS011;29247;50.944;5.382;2023-05-29T09:11:55;9.23;;;1.70;;
43650;SDS011;29247;50.944;5.382;2023-05-29T09:14:37;7.38;;;1.98;;
43650;SDS011;29247;50.944;5.382;2023-05-29T09:17:06;15.85;;;3.40;;
43650;SDS011;29247;50.944;5.382;2023-05-29T09:19:37;10.15;;;2.35;;
43650;SDS011;29247;50.944;5.382;2023-05-29T09:22:12;11.75;;;2.35;;
43650;SDS011;29247;50.944;5.382;2023-05-29T09:24:41;12.30;;;3.30;;
43650;SDS011;29247;50.944;5.382;2023-05-29T09:27:08;14.30;;;2.30;;
43650;SDS011;29247;50.944;5.382;2023-05-29T09:29:44;16.92;;;2.58;;
43650;SDS011;29247;50.944;5.382;2023-05-29T09:32:15;9.57;;;2.35;;
43650;SDS011;29247;50.944;5.382;2023-05-29T09:34:42;7.00;;;2.50;;
43650;SDS011;29247;50.944;5.382;2023-05-29T09:37:09;12.75;;;2.10;;
43650;SDS011;29247;50.944;5.382;2023-05-29T09:39:49;10.23;;;2.25;;
43650;SDS011;29247;50.944;5.382;2023-05-29T09:42:17;5.45;;;1.40;;
43650;SDS011;29247;50.944;5.382;2023-05-29T09:44:52;6.60;;;2.47;;
43650;SDS011;29247;50.944;5.382;2023-05-29T09:47:18;12.48;;;2.80;;
43650;SDS011;29247;50.944;5.382;2023-05-29T09:49:46;9.52;;;2.00;;
43650;SDS011;29247;50.944;5.382;2023-05-29T09:52:15;9.98;;;2.28;;
43650;SDS011;29247;50.944;5.382;2023-05-29T09:54:47;7.60;;;2.45;;
43650;SDS011;29247;50.944;5.382;2023-05-29T09:57:16;10.23;;;2.17;;
43650;SDS011;29247;50.944;5.382;2023-05-29T09:59:48;9.27;;;1.90;;
43650;SDS011;29247;50.944;5.382;2023-05-29T10:02:18;9.80;;;2.42;;
43650;SDS011;29247;50.944;5.382;2023-05-29T10:04:44;6.95;;;2.25;;
43650;SDS011;29247;50.944;5.382;2023-05-29T10:07:19;15.75;;;2.42;;
43650;SDS011;29247;50.944;5.382;2023-05-29T10:09:52;8.15;;;1.85;;
43650;SDS011;29247;50.944;5.382;2023-05-29T10:12:22;12.40;;;2.28;;
43650;SDS011;29247;50.944;5.382;2023-05-29T10:14:51;17.20;;;3.42;;
43650;SDS011;29247;50.944;5.382;2023-05-29T10:17:23;8.63;;;2.10;;
43650;SDS011;29247;50.944;5.382;2023-05-29T10:19:53;8.25;;;2.03;;
43650;SDS011;29247;50.944;5.382;2023-05-29T10:22:23;8.07;;;1.65;;
43650;SDS011;29247;50.944;5.382;2023-05-29T10:24:51;9.30;;;2.20;;
43650;SDS011;29247;50.944;5.382;2023-05-29T10:27:18;5.32;;;1.90;;
43650;SDS011;29247;50.944;5.382;2023-05-29T10:30:47;9.35;;;2.13;;
43650;SDS011;29247;50.944;5.382;2023-05-29T10:35:48;7.35;;;1.88;;
43650;SDS011;29247;50.944;5.382;2023-05-29T10:38:28;9.02;;;1.75;;
43650;SDS011;29247;50.944;5.382;2023-05-29T10:40:53;11.20;;;2.05;;
43650;SDS011;29247;50.944;5.382;2023-05-29T10:43:32;8.02;;;1.83;;
43650;SDS011;29247;50.944;5.382;2023-05-29T10:46:02;7.90;;;1.70;;
43650;SDS011;29247;50.944;5.382;2023-05-29T10:48:38;9.90;;;2.58;;
43650;SDS011;29247;50.944;5.382;2023-05-29T10:51:06;7.50;;;1.80;;
43650;SDS011;29247;50.944;5.382;2023-05-29T10:53:32;6.10;;;1.83;;
43650;SDS011;29247;50.944;5.382;2023-05-29T10:55:59;6.07;;;1.60;;
43650;SDS011;29247;50.944;5.382;2023-05-29T10:58:31;6.63;;;1.40;;
43650;SDS011;29247;50.944;5.382;2023-05-29T11:03:31;5.90;;;1.55;;
43650;SDS011;29247;50.944;5.382;2023-05-29T11:08:32;5.32;;;1.60;;
43650;SDS011;29247;50.944;5.382;2023-05-29T11:11:11;7.07;;;1.90;;
43650;SDS011;29247;50.944;5.382;2023-05-29T11:13:40;8.82;;;1.75;;
43650;SDS011;29247;50.944;5.382;2023-05-29T11:18:45;5.57;;;1.50;;
43650;SDS011;29247;50.944;5.382;2023-05-29T11:23:52;6.38;;;1.83;;
43650;SDS011;29247;50.944;5.382;2023-05-29T11:26:22;5.03;;;1.90;;
43650;SDS011;29247;50.944;5.382;2023-05-29T11:28:48;7.95;;;1.52;;
43650;SDS011;29247;50.944;5.382;2023-05-29T11:31:17;5.05;;;1.45;;
43650;SDS011;29247;50.944;5.382;2023-05-29T11:33:48;6.47;;;1.38;;
43650;SDS011;29247;50.944;5.382;2023-05-29T11:36:21;7.63;;;1.45;;
43650;SDS011;29247;50.944;5.382;2023-05-29T11:38:47;7.35;;;2.00;;
43650;SDS011;29247;50.944;5.382;2023-05-29T11:41:13;11.30;;;2.22;;
43650;SDS011;29247;50.944;5.382;2023-05-29T11:43:43;10.07;;;2.13;;
43650;SDS011;29247;50.944;5.382;2023-05-29T11:46:20;5.07;;;1.50;;
43650;SDS011;29247;50.944;5.382;2023-05-29T11:48:46;5.82;;;1.85;;
43650;SDS011;29247;50.944;5.382;2023-05-29T11:51:16;7.72;;;2.03;;
43650;SDS011;29247;50.944;5.382;2023-05-29T11:53:46;5.55;;;1.90;;
43650;SDS011;29247;50.944;5.382;2023-05-29T11:56:12;7.68;;;2.42;;
43650;SDS011;29247;50.944;5.382;2023-05-29T11:58:41;9.07;;;2.15;;
43650;SDS011;29247;50.944;5.382;2023-05-29T12:01:10;6.78;;;2.15;;
43650;SDS011;29247;50.944;5.382;2023-05-29T12:03:40;6.13;;;1.60;;
43650;SDS011;29247;50.944;5.382;2023-05-29T12:06:07;8.35;;;2.28;;
43650;SDS011;29247;50.944;5.382;2023-05-29T12:08:37;8.00;;;1.85;;
43650;SDS011;29247;50.944;5.382;2023-05-29T12:11:04;6.10;;;1.98;;
43650;SDS011;29247;50.944;5.382;2023-05-29T12:13:37;7.97;;;1.90;;
43650;SDS011;29247;50.944;5.382;2023-05-29T12:16:03;8.77;;;1.80;;
43650;SDS011;29247;50.944;5.382;2023-05-29T12:18:34;8.00;;;1.77;;
43650;SDS011;29247;50.944;5.382;2023-05-29T12:21:01;4.38;;;2.00;;
43650;SDS011;29247;50.944;5.382;2023-05-29T12:23:29;7.90;;;1.77;;
43650;SDS011;29247;50.944;5.382;2023-05-29T12:25:55;4.97;;;1.98;;
43650;SDS011;29247;50.944;5.382;2023-05-29T12:28:23;7.80;;;1.77;;
43650;SDS011;29247;50.944;5.382;2023-05-29T12:30:49;7.75;;;1.67;;
43650;SDS011;29247;50.944;5.382;2023-05-29T12:33:24;8.15;;;1.80;;
43650;SDS011;29247;50.944;5.382;2023-05-29T12:35:54;8.13;;;1.73;;
43650;SDS011;29247;50.944;5.382;2023-05-29T12:38:26;4.80;;;1.67;;
43650;SDS011;29247;50.944;5.382;2023-05-29T12:40:52;7.03;;;1.63;;
43650;SDS011;29247;50.944;5.382;2023-05-29T12:43:18;8.55;;;1.67;;
43650;SDS011;29247;50.944;5.382;2023-05-29T12:45:45;7.15;;;2.25;;
43650;SDS011;29247;50.944;5.382;2023-05-29T12:48:18;7.93;;;2.20;;
43650;SDS011;29247;50.944;5.382;2023-05-29T12:50:46;7.32;;;1.75;;
43650;SDS011;29247;50.944;5.382;2023-05-29T12:55:47;9.07;;;1.92;;
43650;SDS011;29247;50.944;5.382;2023-05-29T12:58:14;6.25;;;1.90;;
43650;SDS011;29247;50.944;5.382;2023-05-29T13:00:43;5.07;;;1.70;;
43650;SDS011;29247;50.944;5.382;2023-05-29T13:03:10;7.03;;;2.17;;
43650;SDS011;29247;50.944;5.382;2023-05-29T13:05:37;5.53;;;1.52;;
43650;SDS011;29247;50.944;5.382;2023-05-29T13:08:04;8.98;;;2.03;;
43650;SDS011;29247;50.944;5.382;2023-05-29T13:10:34;7.32;;;1.52;;
43650;SDS011;29247;50.944;5.382;2023-05-29T13:13:00;4.80;;;1.67;;
43650;SDS011;29247;50.944;5.382;2023-05-29T13:15:29;8.27;;;1.88;;
43650;SDS011;29247;50.944;5.382;2023-05-29T13:18:00;9.18;;;1.73;;
43650;SDS011;29247;50.944;5.382;2023-05-29T13:20:26;6.80;;;1.80;;
43650;SDS011;29247;50.944;5.382;2023-05-29T13:22:52;7.68;;;2.40;;
43650;SDS011;29247;50.944;5.382;2023-05-29T13:25:19;4.97;;;1.65;;
43650;SDS011;29247;50.944;5.382;2023-05-29T13:27:48;5.97;;;1.63;;
43650;SDS011;29247;50.944;5.382;2023-05-29T13:30:17;6.07;;;1.65;;
43650;SDS011;29247;50.944;5.382;2023-05-29T13:32:43;7.60;;;2.53;;
43650;SDS011;29247;50.944;5.382;2023-05-29T13:35:09;4.45;;;1.60;;
43650;SDS011;29247;50.944;5.382;2023-05-29T13:37:35;4.78;;;1.98;;
43650;SDS011;29247;50.944;5.382;2023-05-29T13:40:03;5.43;;;1.48;;
43650;SDS011;29247;50.944;5.382;2023-05-29T13:42:29;5.65;;;1.60;;
43650;SDS011;29247;50.944;5.382;2023-05-29T13:44:56;7.40;;;1.60;;
43650;SDS011;29247;50.944;5.382;2023-05-29T13:47:22;7.07;;;1.98;;
43650;SDS011;29247;50.944;5.382;2023-05-29T13:49:48;10.18;;;1.77;;
43650;SDS011;29247;50.944;5.382;2023-05-29T13:52:19;3.45;;;1.48;;
43650;SDS011;29247;50.944;5.382;2023-05-29T13:54:44;5.60;;;2.00;;
43650;SDS011;29247;50.944;5.382;2023-05-29T13:57:12;6.47;;;1.70;;
43650;SDS011;29247;50.944;5.382;2023-05-29T13:59:40;6.20;;;1.63;;
43650;SDS011;29247;50.944;5.382;2023-05-29T14:02:06;4.97;;;2.00;;
43650;SDS011;29247;50.944;5.382;2023-05-29T14:04:35;5.22;;;1.48;;
43650;SDS011;29247;50.944;5.382;2023-05-29T14:07:03;5.88;;;1.98;;
43650;SDS011;29247;50.944;5.382;2023-05-29T14:09:34;5.88;;;1.80;;
43650;SDS011;29247;50.944;5.382;2023-05-29T14:12:00;4.75;;;1.60;;
43650;SDS011;29247;50.944;5.382;2023-05-29T14:14:29;5.57;;;1.77;;
43650;SDS011;29247;50.944;5.382;2023-05-29T14:16:57;9.73;;;1.60;;
43650;SDS011;29247;50.944;5.382;2023-05-29T14:19:24;4.32;;;1.60;;
43650;SDS011;29247;50.944;5.382;2023-05-29T14:21:50;6.15;;;2.03;;
43650;SDS011;29247;50.944;5.382;2023-05-29T14:24:16;4.30;;;1.67;;
43650;SDS011;29247;50.944;5.382;2023-05-29T14:26:43;7.30;;;1.65;;
43650;SDS011;29247;50.944;5.382;2023-05-29T14:29:11;5.90;;;1.90;;
43650;SDS011;29247;50.944;5.382;2023-05-29T14:31:43;5.78;;;1.83;;
43650;SDS011;29247;50.944;5.382;2023-05-29T14:34:09;4.50;;;2.67;;
43650;SDS011;29247;50.944;5.382;2023-05-29T14:36:35;9.45;;;1.73;;
43650;SDS011;29247;50.944;5.382;2023-05-29T14:39:03;5.32;;;2.25;;
43650;SDS011;29247;50.944;5.382;2023-05-29T14:41:31;9.23;;;2.35;;
43650;SDS011;29247;50.944;5.382;2023-05-29T14:43:58;5.68;;;1.70;;
43650;SDS011;29247;50.944;5.382;2023-05-29T14:46:25;2.20;;;1.58;;
43650;SDS011;29247;50.944;5.382;2023-05-29T14:48:56;5.43;;;1.52;;
43650;SDS011;29247;50.944;5.382;2023-05-29T14:51:27;7.40;;;3.00;;
43650;SDS011;29247;50.944;5.382;2023-05-29T14:53:53;7.18;;;1.75;;
43650;SDS011;29247;50.944;5.382;2023-05-29T14:56:19;5.10;;;1.80;;
43650;SDS011;29247;50.944;5.382;2023-05-29T14:58:45;6.07;;;2.20;;
43650;SDS011;29247;50.944;5.382;2023-05-29T15:01:13;8.40;;;1.92;;
43650;SDS011;29247;50.944;5.382;2023-05-29T15:03:41;6.53;;;1.70;;
43650;SDS011;29247;50.944;5.382;2023-05-29T15:06:08;10.48;;;2.50;;
43650;SDS011;29247;50.944;5.382;2023-05-29T15:11:05;6.97;;;2.17;;
43650;SDS011;29247;50.944;5.382;2023-05-29T15:13:36;6.78;;;1.70;;
43650;SDS011;29247;50.944;5.382;2023-05-29T15:16:04;6.70;;;1.73;;
43650;SDS011;29247;50.944;5.382;2023-05-29T15:18:30;8.68;;;1.63;;
43650;SDS011;29247;50.944;5.382;2023-05-29T15:20:57;5.18;;;1.85;;
43650;SDS011;29247;50.944;5.382;2023-05-29T15:23:24;7.00;;;1.73;;
43650;SDS011;29247;50.944;5.382;2023-05-29T15:25:50;4.50;;;1.73;;